sensor_id;sensor_type;location;lat;lon;timestamp;P1;durP1;ratioP1;P2;durP2;ratioP2
6928;SDS011;3504;52.616;13.238;2022-07-01T00:04:47;12.07;;;10.98;;
6928;SDS011;3504;52.616;13.238;2022-07-01T00:10:07;12.90;;;11.80;;
6928;SDS011;3504;52.616;13.238;2022-07-01T00:15:08;13.18;;;11.82;;
6928;SDS011;3504;52.616;13.238;2022-07-01T00:20:10;13.48;;;12.13;;
6928;SDS011;3504;52.616;13.238;2022-07-01T00:25:12;13.15;;;11.95;;
6928;SDS011;3504;52.616;13.238;2022-07-01T00:30:13;12.82;;;11.73;;
6928;SDS011;3504;52.616;13.238;2022-07-01T00:35:16;13.55;;;12.25;;
6928;SDS011;3504;52.616;13.238;2022-07-01T00:40:16;13.40;;;12.10;;
6928;SDS011;3504;52.616;13.238;2022-07-01T00:45:18;14.18;;;12.80;;
6928;SDS011;3504;52.616;13.238;2022-07-01T00:50:18;14.45;;;13.05;;
6928;SDS011;3504;52.616;13.238;2022-07-01T00:55:20;15.38;;;13.98;;
6928;SDS011;3504;52.616;13.238;2022-07-01T01:00:21;15.43;;;13.95;;
6928;SDS011;3504;52.616;13.238;2022-07-01T01:05:23;15.48;;;13.93;;
6928;SDS011;3504;52.616;13.238;2022-07-01T01:10:25;14.30;;;12.73;;
6928;SDS011;3504;52.616;13.238;2022-07-01T01:15:27;14.30;;;12.90;;
6928;SDS011;3504;52.616;13.238;2022-07-01T01:20:37;15.40;;;14.00;;
6928;SDS011;3504;52.616;13.238;2022-07-01T01:25:39;15.27;;;13.88;;
6928;SDS011;3504;52.616;13.238;2022-07-01T01:30:39;15.80;;;14.15;;
6928;SDS011;3504;52.616;13.238;2022-07-01T01:35:41;16.48;;;14.98;;
6928;SDS011;3504;52.616;13.238;2022-07-01T01:40:43;15.15;;;13.75;;
6928;SDS011;3504;52.616;13.238;2022-07-01T01:45:45;15.82;;;14.32;;
6928;SDS011;3504;52.616;13.238;2022-07-01T01:50:45;15.13;;;13.55;;
6928;SDS011;3504;52.616;13.238;2022-07-01T01:55:47;15.55;;;14.15;;
6928;SDS011;3504;52.616;13.238;2022-07-01T02:00:48;16.52;;;14.82;;
6928;SDS011;3504;52.616;13.238;2022-07-01T02:05:50;17.75;;;16.05;;
6928;SDS011;3504;52.616;13.238;2022-07-01T02:10:51;17.30;;;15.50;;
6928;SDS011;3504;52.616;13.238;2022-07-01T02:15:53;17.70;;;16.02;;
6928;SDS011;3504;52.616;13.238;2022-07-01T02:20:53;16.98;;;15.30;;
6928;SDS011;3504;52.616;13.238;2022-07-01T02:25:55;19.02;;;17.13;;
6928;SDS011;3504;52.616;13.238;2022-07-01T02:30:56;20.63;;;18.50;;
6928;SDS011;3504;52.616;13.238;2022-07-01T02:35:57;20.38;;;18.27;;
6928;SDS011;3504;52.616;13.238;2022-07-01T02:40:58;19.73;;;17.73;;
6928;SDS011;3504;52.616;13.238;2022-07-01T02:45:59;21.05;;;19.02;;
6928;SDS011;3504;52.616;13.238;2022-07-01T02:51:00;19.73;;;17.63;;
6928;SDS011;3504;52.616;13.238;2022-07-01T02:56:02;20.80;;;18.80;;
6928;SDS011;3504;52.616;13.238;2022-07-01T03:01:02;21.85;;;19.55;;
6928;SDS011;3504;52.616;13.238;2022-07-01T03:06:04;22.60;;;20.23;;
6928;SDS011;3504;52.616;13.238;2022-07-01T03:11:04;21.20;;;19.00;;
6928;SDS011;3504;52.616;13.238;2022-07-01T03:16:06;22.27;;;19.92;;
6928;SDS011;3504;52.616;13.238;2022-07-01T03:21:06;24.13;;;21.70;;
6928;SDS011;3504;52.616;13.238;2022-07-01T03:26:08;23.70;;;21.33;;
6928;SDS011;3504;52.616;13.238;2022-07-01T03:31:09;24.45;;;21.85;;
6928;SDS011;3504;52.616;13.238;2022-07-01T03:36:11;25.38;;;22.67;;
6928;SDS011;3504;52.616;13.238;2022-07-01T03:41:13;27.35;;;24.40;;
6928;SDS011;3504;52.616;13.238;2022-07-01T03:46:15;26.63;;;23.77;;
6928;SDS011;3504;52.616;13.238;2022-07-01T03:51:15;26.60;;;23.90;;
6928;SDS011;3504;52.616;13.238;2022-07-01T03:56:17;28.80;;;25.13;;
6928;SDS011;3504;52.616;13.238;2022-07-01T04:01:17;25.88;;;23.35;;
6928;SDS011;3504;52.616;13.238;2022-07-01T04:06:19;26.42;;;23.65;;
6928;SDS011;3504;52.616;13.238;2022-07-01T04:11:20;29.00;;;23.65;;
6928;SDS011;3504;52.616;13.238;2022-07-01T04:16:22;27.55;;;24.60;;
6928;SDS011;3504;52.616;13.238;2022-07-01T04:21:23;27.15;;;24.23;;
6928;SDS011;3504;52.616;13.238;2022-07-01T04:26:44;28.23;;;25.20;;
6928;SDS011;3504;52.616;13.238;2022-07-01T04:31:45;29.25;;;25.25;;
6928;SDS011;3504;52.616;13.238;2022-07-01T04:36:47;26.75;;;24.05;;
6928;SDS011;3504;52.616;13.238;2022-07-01T04:41:47;27.38;;;24.02;;
6928;SDS011;3504;52.616;13.238;2022-07-01T04:47:02;28.38;;;25.20;;
6928;SDS011;3504;52.616;13.238;2022-07-01T04:52:03;26.48;;;23.85;;
6928;SDS011;3504;52.616;13.238;2022-07-01T04:57:05;27.23;;;24.30;;
6928;SDS011;3504;52.616;13.238;2022-07-01T05:02:06;27.42;;;24.73;;
6928;SDS011;3504;52.616;13.238;2022-07-01T05:07:07;27.23;;;24.30;;
6928;SDS011;3504;52.616;13.238;2022-07-01T05:12:27;25.42;;;22.55;;
6928;SDS011;3504;52.616;13.238;2022-07-01T05:17:29;26.08;;;22.75;;
6928;SDS011;3504;52.616;13.238;2022-07-01T05:22:48;24.80;;;22.33;;
6928;SDS011;3504;52.616;13.238;2022-07-01T05:27:50;24.38;;;21.92;;
6928;SDS011;3504;52.616;13.238;2022-07-01T05:32:50;25.08;;;22.38;;
6928;SDS011;3504;52.616;13.238;2022-07-01T05:37:52;24.38;;;21.90;;
6928;SDS011;3504;52.616;13.238;2022-07-01T05:42:53;23.48;;;21.15;;
6928;SDS011;3504;52.616;13.238;2022-07-01T05:47:55;25.70;;;23.10;;
6928;SDS011;3504;52.616;13.238;2022-07-01T05:52:56;25.88;;;22.20;;
6928;SDS011;3504;52.616;13.238;2022-07-01T05:57:58;25.40;;;21.77;;
6928;SDS011;3504;52.616;13.238;2022-07-01T06:03:01;22.92;;;20.63;;
6928;SDS011;3504;52.616;13.238;2022-07-01T06:08:03;24.85;;;22.25;;
6928;SDS011;3504;52.616;13.238;2022-07-01T06:13:04;24.58;;;22.13;;
6928;SDS011;3504;52.616;13.238;2022-07-01T06:18:05;28.45;;;25.50;;
6928;SDS011;3504;52.616;13.238;2022-07-01T06:23:05;26.67;;;24.17;;
6928;SDS011;3504;52.616;13.238;2022-07-01T06:28:07;26.65;;;24.27;;
6928;SDS011;3504;52.616;13.238;2022-07-01T06:33:08;27.77;;;24.95;;
6928;SDS011;3504;52.616;13.238;2022-07-01T06:38:10;26.20;;;23.52;;
6928;SDS011;3504;52.616;13.238;2022-07-01T06:43:10;28.85;;;23.58;;
6928;SDS011;3504;52.616;13.238;2022-07-01T06:48:12;25.70;;;23.10;;
6928;SDS011;3504;52.616;13.238;2022-07-01T06:53:14;26.50;;;23.75;;
6928;SDS011;3504;52.616;13.238;2022-07-01T06:58:16;26.60;;;23.80;;
6928;SDS011;3504;52.616;13.238;2022-07-01T07:03:17;23.02;;;20.42;;
6928;SDS011;3504;52.616;13.238;2022-07-01T07:08:18;21.30;;;19.30;;
6928;SDS011;3504;52.616;13.238;2022-07-01T07:13:19;22.15;;;19.15;;
6928;SDS011;3504;52.616;13.238;2022-07-01T07:18:21;21.08;;;17.85;;
6928;SDS011;3504;52.616;13.238;2022-07-01T07:23:21;18.70;;;16.65;;
6928;SDS011;3504;52.616;13.238;2022-07-01T07:28:23;17.60;;;15.90;;
6928;SDS011;3504;52.616;13.238;2022-07-01T07:33:24;15.45;;;13.90;;
6928;SDS011;3504;52.616;13.238;2022-07-01T07:38:26;15.27;;;13.68;;
6928;SDS011;3504;52.616;13.238;2022-07-01T07:43:26;16.05;;;14.43;;
6928;SDS011;3504;52.616;13.238;2022-07-01T07:48:28;15.50;;;14.10;;
6928;SDS011;3504;52.616;13.238;2022-07-01T07:53:28;15.18;;;13.60;;
6928;SDS011;3504;52.616;13.238;2022-07-01T07:58:30;14.98;;;13.57;;
6928;SDS011;3504;52.616;13.238;2022-07-01T08:03:30;15.50;;;14.10;;
6928;SDS011;3504;52.616;13.238;2022-07-01T08:08:33;15.63;;;13.98;;
6928;SDS011;3504;52.616;13.238;2022-07-01T08:13:33;15.68;;;14.07;;
6928;SDS011;3504;52.616;13.238;2022-07-01T08:18:36;15.82;;;14.32;;
6928;SDS011;3504;52.616;13.238;2022-07-01T08:23:36;16.63;;;14.43;;
6928;SDS011;3504;52.616;13.238;2022-07-01T08:28:38;16.95;;;15.23;;
6928;SDS011;3504;52.616;13.238;2022-07-01T08:33:39;16.42;;;14.85;;
6928;SDS011;3504;52.616;13.238;2022-07-01T08:38:42;16.02;;;14.45;;
6928;SDS011;3504;52.616;13.238;2022-07-01T08:43:42;16.20;;;14.73;;
6928;SDS011;3504;52.616;13.238;2022-07-01T08:48:44;16.13;;;14.50;;
6928;SDS011;3504;52.616;13.238;2022-07-01T08:53:45;15.18;;;13.77;;
6928;SDS011;3504;52.616;13.238;2022-07-01T08:58:50;14.63;;;13.32;;
6928;SDS011;3504;52.616;13.238;2022-07-01T09:03:53;13.68;;;12.50;;
6928;SDS011;3504;52.616;13.238;2022-07-01T09:09:20;17.80;;;12.93;;
6928;SDS011;3504;52.616;13.238;2022-07-01T09:14:22;16.33;;;11.77;;
6928;SDS011;3504;52.616;13.238;2022-07-01T09:19:26;9.93;;;8.93;;
6928;SDS011;3504;52.616;13.238;2022-07-01T09:24:33;12.55;;;9.23;;
6928;SDS011;3504;52.616;13.238;2022-07-01T09:29:39;10.18;;;8.32;;
6928;SDS011;3504;52.616;13.238;2022-07-01T09:34:46;7.72;;;6.93;;
6928;SDS011;3504;52.616;13.238;2022-07-01T09:39:55;8.73;;;4.40;;
6928;SDS011;3504;52.616;13.238;2022-07-01T09:44:58;4.25;;;3.75;;
6928;SDS011;3504;52.616;13.238;2022-07-01T09:50:08;7.32;;;3.35;;
6928;SDS011;3504;52.616;13.238;2022-07-01T09:55:09;2.85;;;2.58;;
6928;SDS011;3504;52.616;13.238;2022-07-01T10:00:14;2.77;;;1.87;;
6928;SDS011;3504;52.616;13.238;2022-07-01T10:05:15;2.78;;;2.30;;
6928;SDS011;3504;52.616;13.238;2022-07-01T10:10:41;2.92;;;2.70;;
6928;SDS011;3504;52.616;13.238;2022-07-01T10:16:19;3.33;;;3.03;;
6928;SDS011;3504;52.616;13.238;2022-07-01T10:21:28;4.20;;;3.00;;
6928;SDS011;3504;52.616;13.238;2022-07-01T10:26:30;5.30;;;3.38;;
6928;SDS011;3504;52.616;13.238;2022-07-01T10:31:38;4.45;;;2.97;;
6928;SDS011;3504;52.616;13.238;2022-07-01T10:36:38;3.20;;;2.55;;
6928;SDS011;3504;52.616;13.238;2022-07-01T10:47:02;3.50;;;2.70;;
6928;SDS011;3504;52.616;13.238;2022-07-01T10:52:07;2.78;;;2.30;;
6928;SDS011;3504;52.616;13.238;2022-07-01T11:02:19;4.32;;;1.92;;
6928;SDS011;3504;52.616;13.238;2022-07-01T11:07:31;2.60;;;1.70;;
6928;SDS011;3504;52.616;13.238;2022-07-01T11:12:35;6.13;;;2.47;;
6928;SDS011;3504;52.616;13.238;2022-07-01T11:17:41;4.20;;;2.42;;
6928;SDS011;3504;52.616;13.238;2022-07-01T11:22:45;3.88;;;1.80;;
6928;SDS011;3504;52.616;13.238;2022-07-01T11:27:46;3.38;;;1.92;;
6928;SDS011;3504;52.616;13.238;2022-07-01T11:32:54;2.25;;;1.60;;
6928;SDS011;3504;52.616;13.238;2022-07-01T11:43:38;1.65;;;1.50;;
6928;SDS011;3504;52.616;13.238;2022-07-01T11:48:41;4.57;;;2.00;;
6928;SDS011;3504;52.616;13.238;2022-07-01T11:53:46;3.88;;;1.70;;
6928;SDS011;3504;52.616;13.238;2022-07-01T11:58:50;2.53;;;2.00;;
6928;SDS011;3504;52.616;13.238;2022-07-01T12:03:54;2.45;;;2.17;;
6928;SDS011;3504;52.616;13.238;2022-07-01T12:08:57;3.67;;;3.38;;
6928;SDS011;3504;52.616;13.238;2022-07-01T12:13:58;5.05;;;4.28;;
6928;SDS011;3504;52.616;13.238;2022-07-01T12:18:59;5.57;;;4.72;;
6928;SDS011;3504;52.616;13.238;2022-07-01T12:24:07;5.43;;;4.93;;
6928;SDS011;3504;52.616;13.238;2022-07-01T12:29:13;5.32;;;4.82;;
6928;SDS011;3504;52.616;13.238;2022-07-01T12:34:16;5.63;;;4.40;;
6928;SDS011;3504;52.616;13.238;2022-07-01T12:39:17;4.80;;;4.40;;
6928;SDS011;3504;52.616;13.238;2022-07-01T12:44:25;5.85;;;5.22;;
6928;SDS011;3504;52.616;13.238;2022-07-01T12:49:26;5.18;;;4.75;;
6928;SDS011;3504;52.616;13.238;2022-07-01T12:54:35;4.93;;;4.43;;
6928;SDS011;3504;52.616;13.238;2022-07-01T12:59:38;4.90;;;4.38;;
6928;SDS011;3504;52.616;13.238;2022-07-01T13:04:40;5.78;;;5.22;;
6928;SDS011;3504;52.616;13.238;2022-07-01T13:09:40;5.75;;;5.18;;
6928;SDS011;3504;52.616;13.238;2022-07-01T13:14:41;5.05;;;4.65;;
6928;SDS011;3504;52.616;13.238;2022-07-01T13:19:41;5.22;;;4.72;;
6928;SDS011;3504;52.616;13.238;2022-07-01T13:24:43;5.05;;;4.65;;
6928;SDS011;3504;52.616;13.238;2022-07-01T13:29:44;4.55;;;4.15;;
6928;SDS011;3504;52.616;13.238;2022-07-01T13:34:46;4.55;;;4.15;;
6928;SDS011;3504;52.616;13.238;2022-07-01T13:39:46;4.53;;;3.80;;
6928;SDS011;3504;52.616;13.238;2022-07-01T13:44:48;4.45;;;4.10;;
6928;SDS011;3504;52.616;13.238;2022-07-01T13:49:50;4.57;;;4.18;;
6928;SDS011;3504;52.616;13.238;2022-07-01T13:54:52;3.90;;;3.60;;
6928;SDS011;3504;52.616;13.238;2022-07-01T13:59:52;4.18;;;3.88;;
6928;SDS011;3504;52.616;13.238;2022-07-01T14:04:53;3.95;;;3.65;;
6928;SDS011;3504;52.616;13.238;2022-07-01T14:09:53;4.20;;;3.75;;
6928;SDS011;3504;52.616;13.238;2022-07-01T14:14:55;5.28;;;4.35;;
6928;SDS011;3504;52.616;13.238;2022-07-01T14:19:56;5.05;;;4.65;;
6928;SDS011;3504;52.616;13.238;2022-07-01T14:24:59;3.80;;;3.50;;
6928;SDS011;3504;52.616;13.238;2022-07-01T14:30:00;4.43;;;4.03;;
6928;SDS011;3504;52.616;13.238;2022-07-01T14:35:02;4.18;;;3.60;;
6928;SDS011;3504;52.616;13.238;2022-07-01T14:40:03;6.25;;;3.78;;
6928;SDS011;3504;52.616;13.238;2022-07-01T14:45:06;4.55;;;3.80;;
6928;SDS011;3504;52.616;13.238;2022-07-01T14:50:08;3.95;;;3.65;;
6928;SDS011;3504;52.616;13.238;2022-07-01T14:55:10;4.57;;;4.18;;
6928;SDS011;3504;52.616;13.238;2022-07-01T15:00:11;7.57;;;4.80;;
6928;SDS011;3504;52.616;13.238;2022-07-01T15:05:13;5.22;;;4.78;;
6928;SDS011;3504;52.616;13.238;2022-07-01T15:10:13;5.03;;;4.53;;
6928;SDS011;3504;52.616;13.238;2022-07-01T15:15:14;5.07;;;4.68;;
6928;SDS011;3504;52.616;13.238;2022-07-01T15:20:15;10.95;;;5.05;;
6928;SDS011;3504;52.616;13.238;2022-07-01T15:25:17;6.05;;;5.50;;
6928;SDS011;3504;52.616;13.238;2022-07-01T15:30:19;5.25;;;4.85;;
6928;SDS011;3504;52.616;13.238;2022-07-01T15:35:22;5.55;;;5.05;;
6928;SDS011;3504;52.616;13.238;2022-07-01T15:40:22;5.15;;;4.38;;
6928;SDS011;3504;52.616;13.238;2022-07-01T15:45:24;5.20;;;4.80;;
6928;SDS011;3504;52.616;13.238;2022-07-01T15:50:26;4.82;;;4.43;;
6928;SDS011;3504;52.616;13.238;2022-07-01T15:55:29;5.40;;;4.85;;
6928;SDS011;3504;52.616;13.238;2022-07-01T16:00:29;5.57;;;5.05;;
6928;SDS011;3504;52.616;13.238;2022-07-01T16:05:34;4.90;;;4.50;;
6928;SDS011;3504;52.616;13.238;2022-07-01T16:15:50;5.20;;;4.80;;
6928;SDS011;3504;52.616;13.238;2022-07-01T16:20:52;5.15;;;4.65;;
6928;SDS011;3504;52.616;13.238;2022-07-01T16:25:57;5.25;;;4.72;;
6928;SDS011;3504;52.616;13.238;2022-07-01T16:31:00;5.30;;;4.80;;
6928;SDS011;3504;52.616;13.238;2022-07-01T16:36:05;5.28;;;4.78;;
6928;SDS011;3504;52.616;13.238;2022-07-01T16:46:54;4.57;;;4.18;;
6928;SDS011;3504;52.616;13.238;2022-07-01T16:52:02;5.18;;;4.78;;
6928;SDS011;3504;52.616;13.238;2022-07-01T16:57:12;5.38;;;4.95;;
6928;SDS011;3504;52.616;13.238;2022-07-01T17:02:15;5.70;;;5.18;;
6928;SDS011;3504;52.616;13.238;2022-07-01T17:07:17;7.32;;;6.63;;
6928;SDS011;3504;52.616;13.238;2022-07-01T17:12:18;7.30;;;6.70;;
6928;SDS011;3504;52.616;13.238;2022-07-01T17:17:20;6.03;;;5.43;;
6928;SDS011;3504;52.616;13.238;2022-07-01T17:22:24;6.75;;;6.15;;
6928;SDS011;3504;52.616;13.238;2022-07-01T17:27:45;6.47;;;5.88;;
6928;SDS011;3504;52.616;13.238;2022-07-01T17:33:14;8.85;;;6.47;;
6928;SDS011;3504;52.616;13.238;2022-07-01T17:38:18;6.93;;;6.32;;
6928;SDS011;3504;52.616;13.238;2022-07-01T17:43:21;6.68;;;6.07;;
6928;SDS011;3504;52.616;13.238;2022-07-01T17:48:25;9.50;;;6.90;;
6928;SDS011;3504;52.616;13.238;2022-07-01T17:53:26;9.43;;;7.20;;
6928;SDS011;3504;52.616;13.238;2022-07-01T17:58:29;6.27;;;5.77;;
6928;SDS011;3504;52.616;13.238;2022-07-01T18:03:29;8.23;;;4.90;;
6928;SDS011;3504;52.616;13.238;2022-07-01T18:08:33;5.20;;;4.80;;
6928;SDS011;3504;52.616;13.238;2022-07-01T18:19:06;7.73;;;5.20;;
6928;SDS011;3504;52.616;13.238;2022-07-01T18:24:36;6.00;;;5.40;;
6928;SDS011;3504;52.616;13.238;2022-07-01T18:29:42;6.60;;;6.00;;
6928;SDS011;3504;52.616;13.238;2022-07-01T18:39:59;7.53;;;6.67;;
6928;SDS011;3504;52.616;13.238;2022-07-01T18:45:00;6.90;;;6.03;;
6928;SDS011;3504;52.616;13.238;2022-07-01T18:50:04;7.23;;;6.63;;
6928;SDS011;3504;52.616;13.238;2022-07-01T18:55:07;7.53;;;6.70;;
6928;SDS011;3504;52.616;13.238;2022-07-01T19:00:14;7.32;;;6.70;;
6928;SDS011;3504;52.616;13.238;2022-07-01T19:05:18;6.73;;;6.13;;
6928;SDS011;3504;52.616;13.238;2022-07-01T19:10:19;7.37;;;6.77;;
6928;SDS011;3504;52.616;13.238;2022-07-01T19:15:20;8.00;;;7.23;;
6928;SDS011;3504;52.616;13.238;2022-07-01T19:20:22;7.37;;;6.77;;
6928;SDS011;3504;52.616;13.238;2022-07-01T19:25:22;8.03;;;7.23;;
6928;SDS011;3504;52.616;13.238;2022-07-01T19:30:24;10.17;;;7.93;;
6928;SDS011;3504;52.616;13.238;2022-07-01T19:35:25;9.80;;;8.90;;
6928;SDS011;3504;52.616;13.238;2022-07-01T19:40:26;8.70;;;7.90;;
6928;SDS011;3504;52.616;13.238;2022-07-01T19:45:27;9.23;;;8.43;;
6928;SDS011;3504;52.616;13.238;2022-07-01T19:50:29;9.73;;;8.77;;
6928;SDS011;3504;52.616;13.238;2022-07-01T19:55:29;9.73;;;8.70;;
6928;SDS011;3504;52.616;13.238;2022-07-01T20:00:31;9.57;;;8.53;;
6928;SDS011;3504;52.616;13.238;2022-07-01T20:05:32;9.43;;;8.53;;
6928;SDS011;3504;52.616;13.238;2022-07-01T20:10:33;9.43;;;8.53;;
6928;SDS011;3504;52.616;13.238;2022-07-01T20:15:34;12.63;;;9.30;;
6928;SDS011;3504;52.616;13.238;2022-07-01T20:20:36;10.13;;;9.10;;
6928;SDS011;3504;52.616;13.238;2022-07-01T20:25:37;12.10;;;9.53;;
6928;SDS011;3504;52.616;13.238;2022-07-01T20:30:42;10.57;;;9.13;;
6928;SDS011;3504;52.616;13.238;2022-07-01T20:35:43;10.43;;;8.93;;
6928;SDS011;3504;52.616;13.238;2022-07-01T20:40:44;12.20;;;10.17;;
6928;SDS011;3504;52.616;13.238;2022-07-01T20:45:45;12.03;;;9.13;;
6928;SDS011;3504;52.616;13.238;2022-07-01T20:50:47;10.40;;;9.40;;
6928;SDS011;3504;52.616;13.238;2022-07-01T20:55:47;10.27;;;9.30;;
6928;SDS011;3504;52.616;13.238;2022-07-01T21:00:49;11.37;;;10.00;;
6928;SDS011;3504;52.616;13.238;2022-07-01T21:05:50;12.03;;;9.40;;
6928;SDS011;3504;52.616;13.238;2022-07-01T21:10:53;10.50;;;9.37;;
6928;SDS011;3504;52.616;13.238;2022-07-01T21:15:53;11.20;;;10.17;;
6928;SDS011;3504;52.616;13.238;2022-07-01T21:20:55;13.23;;;10.37;;
6928;SDS011;3504;52.616;13.238;2022-07-01T21:25:56;13.63;;;10.87;;
6928;SDS011;3504;52.616;13.238;2022-07-01T21:30:58;11.13;;;10.03;;
6928;SDS011;3504;52.616;13.238;2022-07-01T21:36:03;14.50;;;10.97;;
6928;SDS011;3504;52.616;13.238;2022-07-01T21:41:06;12.17;;;9.90;;
6928;SDS011;3504;52.616;13.238;2022-07-01T21:46:17;12.70;;;11.27;;
6928;SDS011;3504;52.616;13.238;2022-07-01T21:51:21;11.97;;;10.67;;
6928;SDS011;3504;52.616;13.238;2022-07-01T21:56:21;13.27;;;10.37;;
6928;SDS011;3504;52.616;13.238;2022-07-01T22:01:24;12.87;;;11.20;;
6928;SDS011;3504;52.616;13.238;2022-07-01T22:06:26;12.30;;;11.00;;
6928;SDS011;3504;52.616;13.238;2022-07-01T22:11:28;11.57;;;10.40;;
6928;SDS011;3504;52.616;13.238;2022-07-01T22:16:30;12.43;;;11.13;;
6928;SDS011;3504;52.616;13.238;2022-07-01T22:21:34;12.33;;;10.97;;
6928;SDS011;3504;52.616;13.238;2022-07-01T22:26:36;11.70;;;10.40;;
6928;SDS011;3504;52.616;13.238;2022-07-01T22:31:38;11.67;;;10.50;;
6928;SDS011;3504;52.616;13.238;2022-07-01T22:36:40;13.57;;;10.63;;
6928;SDS011;3504;52.616;13.238;2022-07-01T22:41:45;13.67;;;11.37;;
6928;SDS011;3504;52.616;13.238;2022-07-01T22:47:04;11.53;;;10.43;;
6928;SDS011;3504;52.616;13.238;2022-07-01T23:03:20;11.13;;;9.63;;
6928;SDS011;3504;52.616;13.238;2022-07-01T23:08:34;10.97;;;9.87;;
6928;SDS011;3504;52.616;13.238;2022-07-01T23:14:02;11.50;;;10.30;;
6928;SDS011;3504;52.616;13.238;2022-07-01T23:19:31;10.23;;;9.23;;
6928;SDS011;3504;52.616;13.238;2022-07-01T23:24:33;13.27;;;10.10;;
6928;SDS011;3504;52.616;13.238;2022-07-01T23:29:37;10.23;;;9.23;;
6928;SDS011;3504;52.616;13.238;2022-07-01T23:34:42;10.77;;;9.77;;
6928;SDS011;3504;52.616;13.238;2022-07-01T23:39:44;10.47;;;9.47;;
6928;SDS011;3504;52.616;13.238;2022-07-01T23:44:47;10.97;;;9.87;;
6928;SDS011;3504;52.616;13.238;2022-07-01T23:49:48;11.83;;;10.63;;
6928;SDS011;3504;52.616;13.238;2022-07-01T23:54:49;10.80;;;9.70;;
6928;SDS011;3504;52.616;13.238;2022-07-01T23:59:50;13.70;;;9.97;;
